Disclaimer

Please do not use the information listed here in-flight or in-navigation, as they are not provided to us by the airports but are provided by volunteers, so they might be outdated.

Search


Regions


Airport information page

No radio frequency information is available.

Airport informations:
Latitude: 14° 51' 45.94" S
Longitude: 040° 51' 47.18" W
Elevation: 2998 feet - 914 meters
Operating hours: Remarks
Operating agency: Civil government, landing fees and diplomatic clearance may be required
Timezone: UTC-3(-2DT)
Fuel: Jet A1, without icing nhibitor.

100/130 octane gasoline, leaded, MIL-L-5572F (GREEN)

Runway information:
15/33 - 5823 x 98 feet< - >1775 x 30 meters

Recent METARs:
SBQV 152200Z 13011KT 9999 FEW040 24/18 Q1020
SBQV 152300Z 14011KT CAVOK 23/20 Q1020
SBQV 152300Z 14011KT CAVOK 23/20 Q1020

Airport on the map: